Time;durP1;ratioP1;P1;durP2;ratioP2;P2;SDS_P1;SDS_P2;PMS_P1;PMS_P2;Temp;Humidity;BMP_temperature;BMP_pressure;BME280_temperature;BME280_humidity;BME280_pressure;Samples;Min_cycle;Max_cycle;Signal;HPM_P1;HPM_P2
2022/08/20 00:00:52;;;;;;;1999.90;999.90;;;;;;;-144.65;100.00;64500.88;5031690;28;20060;-78
2022/08/20 00:03:30;;;;;;;1999.90;999.90;;;;;;;-144.65;100.00;64500.88;5025389;28;20080;-79
2022/08/20 00:06:03;;;;;;;1999.90;999.90;;;;;;;-144.65;100.00;64500.88;5026709;28;20022;-80
2022/08/20 00:08:28;;;;;;;1999.90;999.90;;;;;;;-144.65;100.00;64500.88;5025082;28;20062;-79
2022/08/20 00:10:55;;;;;;;1999.90;999.90;;;;;;;-144.65;100.00;64500.88;5005632;28;20030;-80
2022/08/20 00:13:32;;;;;;;1999.90;999.90;;;;;;;-144.65;100.00;64500.88;5024925;28;20164;-79
2022/08/20 00:15:58;;;;;;;1999.90;999.90;;;;;;;-144.65;100.00;64500.88;5027210;28;20029;-80
2022/08/20 00:18:24;;;;;;;1999.90;999.90;;;;;;;-144.65;100.00;64500.88;5026493;28;20037;-80
2022/08/20 00:20:52;;;;;;;1999.90;999.90;;;;;;;-144.65;100.00;64500.88;5027171;28;20108;-80
2022/08/20 00:23:18;;;;;;;1999.90;999.90;;;;;;;-144.65;100.00;64500.88;5009517;28;20578;-79
2022/08/20 00:25:44;;;;;;;1999.90;999.90;;;;;;;-144.65;100.00;64500.88;5031579;28;20093;-79
2022/08/20 00:28:11;;;;;;;1999.90;999.90;;;;;;;-144.65;100.00;64500.88;5032793;28;20025;-79
2022/08/20 00:30:38;;;;;;;1999.90;999.90;;;;;;;-144.65;100.00;64500.88;5034223;28;20057;-79
2022/08/20 00:33:08;;;;;;;1999.90;999.90;;;;;;;-144.65;100.00;64500.88;5027296;28;20030;-79
2022/08/20 00:35:36;;;;;;;1999.90;999.90;;;;;;;-144.65;100.00;64500.88;5026922;28;20037;-80
2022/08/20 00:38:02;;;;;;;1999.90;999.90;;;;;;;-144.65;100.00;64500.88;5027011;28;20021;-76
2022/08/20 00:40:42;;;;;;;1999.90;999.90;;;;;;;-144.65;100.00;64500.88;5027001;28;20522;-80
2022/08/20 00:43:33;;;;;;;1999.90;999.90;;;;;;;-144.65;100.00;64500.88;5026015;28;20398;-79
2022/08/20 00:46:00;;;;;;;1999.90;999.90;;;;;;;-144.65;100.00;64500.88;5023511;28;20034;-80
2022/08/20 00:48:30;;;;;;;1999.90;999.90;;;;;;;-144.65;100.00;64500.88;5022363;28;20029;-80
2022/08/20 00:51:06;;;;;;;1999.90;999.90;;;;;;;-144.65;100.00;64500.88;5022200;28;20030;-80
2022/08/20 00:53:33;;;;;;;1999.90;999.90;;;;;;;-144.65;100.00;64500.88;5021051;28;20045;-80
2022/08/20 00:55:59;;;;;;;1999.90;999.90;;;;;;;-144.65;100.00;64500.88;5021826;28;20041;-80
2022/08/20 00:58:27;;;;;;;1999.90;999.90;;;;;;;-144.65;100.00;64500.88;5022266;28;20022;-79
2022/08/20 01:00:53;;;;;;;1999.90;999.90;;;;;;;-144.65;100.00;64500.88;5021772;28;20022;-80
2022/08/20 01:03:20;;;;;;;1999.90;999.90;;;;;;;-144.65;100.00;64500.88;5022993;28;20025;-79
2022/08/20 01:05:49;;;;;;;1999.90;999.90;;;;;;;-144.65;100.00;64500.88;5023088;28;20049;-80
2022/08/20 01:08:17;;;;;;;1999.90;999.90;;;;;;;-144.65;100.00;64500.88;5023882;28;20041;-79
2022/08/20 01:10:47;;;;;;;1999.90;999.90;;;;;;;-144.65;100.00;64500.88;5024831;28;20033;-79
2022/08/20 01:13:16;;;;;;;1999.90;999.90;;;;;;;-144.65;100.00;64500.88;5008862;28;20113;-80
2022/08/20 01:15:44;;;;;;;1999.90;999.90;;;;;;;-144.65;100.00;64500.88;5002219;28;20035;-80
2022/08/20 01:18:17;;;;;;;1999.90;999.90;;;;;;;-144.65;100.00;64500.88;5000326;28;20031;-80
2022/08/20 01:20:48;;;;;;;1999.90;999.90;;;;;;;-144.65;100.00;64500.88;4999096;28;20030;-78
2022/08/20 01:23:28;;;;;;;1999.90;999.90;;;;;;;-144.65;100.00;64500.88;4999258;28;20035;-78
2022/08/20 01:26:10;;;;;;;1999.90;999.90;;;;;;;-144.65;100.00;64500.88;5000532;28;20019;-77
2022/08/20 01:28:39;;;;;;;1999.90;999.90;;;;;;;-144.65;100.00;64500.88;4997968;28;20030;-78
2022/08/20 01:31:07;;;;;;;1999.90;999.90;;;;;;;-144.65;100.00;64500.88;4998467;28;20038;-77
2022/08/20 01:33:33;;;;;;;1999.90;999.90;;;;;;;-144.65;100.00;64500.88;5000238;28;20419;-79
2022/08/20 01:35:59;;;;;;;1999.90;999.90;;;;;;;-144.65;100.00;64500.88;5003487;28;20037;-78
2022/08/20 01:38:26;;;;;;;1999.90;999.90;;;;;;;-144.65;100.00;64500.88;5004231;28;20398;-79
2022/08/20 01:41:14;;;;;;;1999.90;999.90;;;;;;;-144.65;100.00;64500.88;5000199;28;20033;-79
2022/08/20 01:43:40;;;;;;;1999.90;999.90;;;;;;;-144.65;100.00;64500.88;4998914;28;20753;-77
2022/08/20 01:46:08;;;;;;;1999.90;999.90;;;;;;;-144.65;100.00;64500.88;5001355;28;20037;-78
2022/08/20 01:48:35;;;;;;;1999.90;999.90;;;;;;;-144.65;100.00;64500.88;5012158;28;20031;-80
2022/08/20 01:51:14;;;;;;;1999.90;999.90;;;;;;;-144.65;100.00;64500.88;5004456;28;20548;-78
2022/08/20 01:53:45;;;;;;;1999.90;999.90;;;;;;;-144.65;100.00;64500.88;5004775;28;20390;-79
2022/08/20 01:56:14;;;;;;;1999.90;999.90;;;;;;;-144.65;100.00;64500.88;5000864;28;20076;-78
2022/08/20 01:58:42;;;;;;;1999.90;999.90;;;;;;;-144.65;100.00;64500.88;4999759;28;20368;-79
2022/08/20 02:01:49;;;;;;;1999.90;999.90;;;;;;;-144.65;100.00;64500.88;5000694;28;20479;-78
2022/08/20 02:04:16;;;;;;;1999.90;999.90;;;;;;;-144.65;100.00;64500.88;4982436;28;20128;-78
2022/08/20 02:06:51;;;;;;;1999.90;999.90;;;;;;;-144.65;100.00;64500.88;5024584;28;20026;-78
2022/08/20 02:09:17;;;;;;;1999.90;999.90;;;;;;;-144.65;100.00;64500.88;5023398;28;20052;-77
2022/08/20 02:11:42;;;;;;;1999.90;999.90;;;;;;;-144.65;100.00;64500.88;5023125;28;20028;-77
2022/08/20 02:14:09;;;;;;;1999.90;999.90;;;;;;;-144.65;100.00;64500.88;5023386;28;20037;-79
2022/08/20 02:16:38;;;;;;;1999.90;999.90;;;;;;;-144.65;100.00;64500.88;5005653;28;20026;-78
2022/08/20 02:19:08;;;;;;;1999.90;999.90;;;;;;;-144.65;100.00;64500.88;5023566;28;20025;-78
2022/08/20 02:21:37;;;;;;;1999.90;999.90;;;;;;;-144.65;100.00;64500.88;5005786;28;20045;-77
2022/08/20 02:24:03;;;;;;;1999.90;999.90;;;;;;;-144.65;100.00;64500.88;5023191;28;20092;-77
2022/08/20 02:26:29;;;;;;;1999.90;999.90;;;;;;;-144.65;100.00;64500.88;5023818;28;20037;-78
2022/08/20 02:28:56;;;;;;;1999.90;999.90;;;;;;;-144.65;100.00;64500.88;5022762;28;20029;-79
2022/08/20 02:31:22;;;;;;;1999.90;999.90;;;;;;;-144.65;100.00;64500.88;5022727;28;20025;-78
2022/08/20 02:33:48;;;;;;;1999.90;999.90;;;;;;;-144.65;100.00;64500.88;5005070;28;20725;-78
2022/08/20 02:36:16;;;;;;;1999.90;999.90;;;;;;;-144.65;100.00;64500.88;5023383;28;20550;-78
2022/08/20 02:38:42;;;;;;;1999.90;999.90;;;;;;;-144.65;100.00;64500.88;5024018;28;20372;-78
2022/08/20 02:41:07;;;;;;;1999.90;999.90;;;;;;;-144.65;100.00;64500.88;5024582;28;20083;-77
2022/08/20 02:43:33;;;;;;;1999.90;999.90;;;;;;;-144.65;100.00;64500.88;5024710;28;20478;-77
2022/08/20 02:46:01;;;;;;;1999.90;999.90;;;;;;;-144.65;100.00;64500.88;5025702;28;20398;-78
2022/08/20 02:48:26;;;;;;;1999.90;999.90;;;;;;;-144.65;100.00;64500.88;5026229;28;20034;-79
2022/08/20 02:50:56;;;;;;;1999.90;999.90;;;;;;;-144.65;100.00;64500.88;5025485;28;20021;-78
2022/08/20 02:53:24;;;;;;;1999.90;999.90;;;;;;;-144.65;100.00;64500.88;5024685;28;20034;-77
2022/08/20 02:55:50;;;;;;;1999.90;999.90;;;;;;;-144.65;100.00;64500.88;5024891;28;20366;-77
2022/08/20 02:58:17;;;;;;;1999.90;999.90;;;;;;;-144.65;100.00;64500.88;5027016;28;20022;-78
2022/08/20 03:00:43;;;;;;;1999.90;999.90;;;;;;;-144.65;100.00;64500.88;5033008;28;20038;-78
2022/08/20 03:03:10;;;;;;;1999.90;999.90;;;;;;;-144.65;100.00;64500.88;5035990;28;20038;-78
2022/08/20 03:05:37;;;;;;;1999.90;999.90;;;;;;;-144.65;100.00;64500.88;5027834;28;20030;-78
2022/08/20 03:08:04;;;;;;;1999.90;999.90;;;;;;;-144.65;100.00;64500.88;5021978;28;20065;-78
2022/08/20 03:10:32;;;;;;;1999.90;999.90;;;;;;;-144.65;100.00;64500.88;5020568;28;20494;-78
2022/08/20 03:13:01;;;;;;;1999.90;999.90;;;;;;;-144.65;100.00;64500.88;5003862;28;20048;-77
2022/08/20 03:15:27;;;;;;;1999.90;999.90;;;;;;;-144.65;100.00;64500.88;5020028;28;20080;-77
2022/08/20 03:17:53;;;;;;;1999.90;999.90;;;;;;;-144.65;100.00;64500.88;5020689;28;20506;-77
2022/08/20 03:20:19;;;;;;;1999.90;999.90;;;;;;;-144.65;100.00;64500.88;5021743;28;20068;-78
2022/08/20 03:22:45;;;;;;;1999.90;999.90;;;;;;;-144.65;100.00;64500.88;5020607;28;20081;-77
2022/08/20 03:25:11;;;;;;;1999.90;999.90;;;;;;;-144.65;100.00;64500.88;5021078;28;20010;-77
2022/08/20 03:27:36;;;;;;;1999.90;999.90;;;;;;;-144.65;100.00;64500.88;5001790;28;20478;-76
2022/08/20 03:30:06;;;;;;;1999.90;999.90;;;;;;;-144.65;100.00;64500.88;5021198;28;20040;-78
2022/08/20 03:32:32;;;;;;;1999.90;999.90;;;;;;;-144.65;100.00;64500.88;5022324;28;20026;-77
2022/08/20 03:34:57;;;;;;;1999.90;999.90;;;;;;;-144.65;100.00;64500.88;5022029;28;20037;-76
2022/08/20 03:37:23;;;;;;;1999.90;999.90;;;;;;;-144.65;100.00;64500.88;5023036;28;20104;-78
2022/08/20 03:39:48;;;;;;;1999.90;999.90;;;;;;;-144.65;100.00;64500.88;5023373;28;20041;-79
2022/08/20 03:42:13;;;;;;;1999.90;999.90;;;;;;;-144.65;100.00;64500.88;5022876;28;20056;-78
2022/08/20 03:44:39;;;;;;;1999.90;999.90;;;;;;;-144.65;100.00;64500.88;5023166;28;20526;-78
2022/08/20 03:47:08;;;;;;;1999.90;999.90;;;;;;;-144.65;100.00;64500.88;5022608;28;20026;-79
2022/08/20 03:49:35;;;;;;;1999.90;999.90;;;;;;;-144.65;100.00;64500.88;5023151;28;20034;-78
2022/08/20 03:52:02;;;;;;;1999.90;999.90;;;;;;;-144.65;100.00;64500.88;5023067;28;20754;-78
2022/08/20 03:54:28;;;;;;;1999.90;999.90;;;;;;;-144.65;100.00;64500.88;5021930;28;20125;-78
2022/08/20 03:56:53;;;;;;;1999.90;999.90;;;;;;;-144.65;100.00;64500.88;5022240;28;20061;-78
2022/08/20 03:59:19;;;;;;;1999.90;999.90;;;;;;;-144.65;100.00;64500.88;5004653;28;20026;-78
2022/08/20 04:01:44;;;;;;;1999.90;999.90;;;;;;;-144.65;100.00;64500.88;5022165;28;20033;-77
2022/08/20 04:04:10;;;;;;;1999.90;999.90;;;;;;;-144.65;100.00;64500.88;5022445;28;20470;-78
2022/08/20 04:06:35;;;;;;;1999.90;999.90;;;;;;;-144.65;100.00;64500.88;5023000;28;20026;-78
2022/08/20 04:09:01;;;;;;;1999.90;999.90;;;;;;;-144.65;100.00;64500.88;5022490;28;20022;-79
2022/08/20 04:11:26;;;;;;;1999.90;999.90;;;;;;;-144.65;100.00;64500.88;5022766;28;20060;-78
2022/08/20 04:13:52;;;;;;;1999.90;999.90;;;;;;;-144.65;100.00;64500.88;5022386;28;20068;-78
2022/08/20 04:16:17;;;;;;;1999.90;999.90;;;;;;;-144.65;100.00;64500.88;5022507;28;20041;-78
2022/08/20 04:18:42;;;;;;;1999.90;999.90;;;;;;;-144.65;100.00;64500.88;5025335;28;20026;-79
2022/08/20 04:21:08;;;;;;;1999.90;999.90;;;;;;;-144.65;100.00;64500.88;5013790;28;20076;-78
2022/08/20 04:23:34;;;;;;;1999.90;999.90;;;;;;;-144.65;100.00;64500.88;5031912;28;20037;-79
2022/08/20 04:26:00;;;;;;;1999.90;999.90;;;;;;;-144.65;100.00;64500.88;5026959;28;20379;-78
2022/08/20 04:28:27;;;;;;;1999.90;999.90;;;;;;;-144.65;100.00;64500.88;5019652;28;20021;-79
2022/08/20 04:30:55;;;;;;;1999.90;999.90;;;;;;;-144.65;100.00;64500.88;4999273;28;20030;-78
2022/08/20 04:33:23;;;;;;;1999.90;999.90;;;;;;;-144.65;100.00;64500.88;5016754;28;20080;-79
2022/08/20 04:35:48;;;;;;;1999.90;999.90;;;;;;;-144.65;100.00;64500.88;5016821;28;20033;-78
2022/08/20 04:38:16;;;;;;;1999.90;999.90;;;;;;;-144.65;100.00;64500.88;5017140;28;20034;-78
2022/08/20 04:40:57;;;;;;;1999.90;999.90;;;;;;;-144.65;100.00;64500.88;5017426;28;20034;-79
2022/08/20 04:43:28;;;;;;;1999.90;999.90;;;;;;;-144.65;100.00;64500.88;5017506;28;20065;-79
2022/08/20 04:45:56;;;;;;;1999.90;999.90;;;;;;;-144.65;100.00;64500.88;5018691;28;20025;-78
2022/08/20 04:48:23;;;;;;;1999.90;999.90;;;;;;;-144.65;100.00;64500.88;5017081;28;20050;-78
2022/08/20 04:50:51;;;;;;;1999.90;999.90;;;;;;;-144.65;100.00;64500.88;5000832;28;20486;-78
2022/08/20 04:53:19;;;;;;;1999.90;999.90;;;;;;;-144.65;100.00;64500.88;4981171;28;20026;-78
2022/08/20 04:55:46;;;;;;;1999.90;999.90;;;;;;;-144.65;100.00;64500.88;4982763;28;20026;-79
2022/08/20 04:58:17;;;;;;;1999.90;999.90;;;;;;;-144.65;100.00;64500.88;5001285;28;20018;-79
2022/08/20 05:00:54;;;;;;;1999.90;999.90;;;;;;;-144.65;100.00;64500.88;5000368;28;20031;-79
2022/08/20 05:03:20;;;;;;;1999.90;999.90;;;;;;;-144.65;100.00;64500.88;5001306;28;20019;-79
2022/08/20 05:05:46;;;;;;;1999.90;999.90;;;;;;;-144.65;100.00;64500.88;4981262;28;20042;-78
2022/08/20 05:08:13;;;;;;;1999.90;999.90;;;;;;;-144.65;100.00;64500.88;4996592;28;20169;-79
2022/08/20 05:10:40;;;;;;;1999.90;999.90;;;;;;;-144.65;100.00;64500.88;4998899;28;20026;-79
2022/08/20 05:13:06;;;;;;;1999.90;999.90;;;;;;;-144.65;100.00;64500.88;4999192;28;20030;-79
2022/08/20 05:15:33;;;;;;;1999.90;999.90;;;;;;;-144.65;100.00;64500.88;4981073;28;20026;-77
2022/08/20 05:18:01;;;;;;;1999.90;999.90;;;;;;;-144.65;100.00;64500.88;4998079;28;20141;-78
2022/08/20 05:20:30;;;;;;;1999.90;999.90;;;;;;;-144.65;100.00;64500.88;4999424;28;20035;-79
2022/08/20 05:23:00;;;;;;;1999.90;999.90;;;;;;;-144.65;100.00;64500.88;4997274;28;20053;-78
2022/08/20 05:25:29;;;;;;;1999.90;999.90;;;;;;;-144.65;100.00;64500.88;4995375;28;20038;-78
2022/08/20 05:27:59;;;;;;;1999.90;999.90;;;;;;;-144.65;100.00;64500.88;4998805;28;20023;-78
2022/08/20 05:30:32;;;;;;;1999.90;999.90;;;;;;;-144.65;100.00;64500.88;4983521;28;20037;-78
2022/08/20 05:32:59;;;;;;;1999.90;999.90;;;;;;;-144.65;100.00;64500.88;5000853;28;20177;-79
2022/08/20 05:35:26;;;;;;;1999.90;999.90;;;;;;;-144.65;100.00;64500.88;5000249;28;20034;-78
2022/08/20 05:37:52;;;;;;;1999.90;999.90;;;;;;;-144.65;100.00;64500.88;5001859;28;20026;-79
2022/08/20 05:40:18;;;;;;;1999.90;999.90;;;;;;;-144.65;100.00;64500.88;5004503;28;20055;-78
2022/08/20 05:42:44;;;;;;;1999.90;999.90;;;;;;;-144.65;100.00;64500.88;5003494;28;20023;-77
2022/08/20 05:45:09;;;;;;;1999.90;999.90;;;;;;;-144.65;100.00;64500.88;5002227;28;20121;-79
2022/08/20 05:47:39;;;;;;;1999.90;999.90;;;;;;;-144.65;100.00;64500.88;5001880;28;20038;-77
2022/08/20 05:50:06;;;;;;;1999.90;999.90;;;;;;;-144.65;100.00;64500.88;4982946;28;20487;-80
2022/08/20 05:52:32;;;;;;;1999.90;999.90;;;;;;;-144.65;100.00;64500.88;5001773;28;20120;-76
2022/08/20 05:54:57;;;;;;;1999.90;999.90;;;;;;;-144.65;100.00;64500.88;5002024;28;20058;-78
2022/08/20 05:57:22;;;;;;;1999.90;999.90;;;;;;;-144.65;100.00;64500.88;5001446;28;20029;-78
2022/08/20 05:59:48;;;;;;;1999.90;999.90;;;;;;;-144.65;100.00;64500.88;4995402;28;20125;-77
2022/08/20 06:04:58;;;;;;;1999.90;999.90;;;;;;;-144.65;100.00;64500.88;4991027;28;20090;-80
2022/08/20 06:07:23;;;;;;;1999.90;999.90;;;;;;;-144.65;100.00;64500.88;4981764;28;20030;-80
2022/08/20 06:09:49;;;;;;;1999.90;999.90;;;;;;;-144.65;100.00;64500.88;4983352;28;20538;-81
2022/08/20 06:12:15;;;;;;;1999.90;999.90;;;;;;;-144.65;100.00;64500.88;4986073;28;20031;-81
2022/08/20 06:14:41;;;;;;;1999.90;999.90;;;;;;;-144.65;100.00;64500.88;4987547;28;20023;-77
2022/08/20 06:17:16;;;;;;;1999.90;999.90;;;;;;;-144.65;100.00;64500.88;4967306;28;20030;-72
2022/08/20 06:19:43;;;;;;;;;;;;;;;-144.65;100.00;64500.88;4995115;28;20034;-72
2022/08/20 06:22:08;;;;;;;1999.90;999.90;;;;;;;-144.65;100.00;64500.88;4994411;28;20008;-73
2022/08/20 06:24:34;;;;;;;1999.90;999.90;;;;;;;-144.65;100.00;64500.88;4994426;28;20605;-79
2022/08/20 06:27:02;;;;;;;1999.90;999.90;;;;;;;-144.65;100.00;64500.88;4999408;28;20517;-79
2022/08/20 06:29:28;;;;;;;1999.90;999.90;;;;;;;-144.65;100.00;64500.88;4997759;28;20038;-78
2022/08/20 06:31:54;;;;;;;1999.90;999.90;;;;;;;-144.65;100.00;64500.88;4997474;28;20034;-75
2022/08/20 06:34:20;;;;;;;1999.90;999.90;;;;;;;-144.65;100.00;64500.88;4994683;28;20038;-76
2022/08/20 06:36:46;;;;;;;1999.90;999.90;;;;;;;-144.65;100.00;64500.88;4997619;28;20395;-77
2022/08/20 06:39:13;;;;;;;1999.90;999.90;;;;;;;-144.65;100.00;64500.88;4995939;28;20049;-77
2022/08/20 06:41:38;;;;;;;1999.90;999.90;;;;;;;-144.65;100.00;64500.88;4978808;28;20030;-77
2022/08/20 06:44:06;;;;;;;1999.90;999.90;;;;;;;-144.65;100.00;64500.88;4996363;28;20046;-76
2022/08/20 06:46:33;;;;;;;1999.90;999.90;;;;;;;-144.65;100.00;64500.88;5003964;28;20045;-78
2022/08/20 06:48:58;;;;;;;1999.90;999.90;;;;;;;-144.65;100.00;64500.88;5002865;28;20026;-77
2022/08/20 06:51:24;;;;;;;1999.90;999.90;;;;;;;-144.65;100.00;64500.88;4999457;28;20033;-77
2022/08/20 06:53:49;;;;;;;1999.90;999.90;;;;;;;-144.65;100.00;64500.88;4987301;28;20541;-74
2022/08/20 06:56:15;;;;;;;1999.90;999.90;;;;;;;-144.65;100.00;64500.88;4993934;28;20471;-73
2022/08/20 06:58:40;;;;;;;1999.90;999.90;;;;;;;-144.65;100.00;64500.88;4993362;28;20037;-73
2022/08/20 07:01:07;;;;;;;1999.90;999.90;;;;;;;-144.65;100.00;64500.88;4993154;28;20030;-73
2022/08/20 07:03:33;;;;;;;1999.90;999.90;;;;;;;-144.65;100.00;64500.88;4975752;28;20040;-74
2022/08/20 07:05:58;;;;;;;1999.90;999.90;;;;;;;-144.65;100.00;64500.88;4993687;28;20022;-76
2022/08/20 07:08:24;;;;;;;1999.90;999.90;;;;;;;-144.65;100.00;64500.88;4993432;28;20034;-76
2022/08/20 07:10:49;;;;;;;1999.90;999.90;;;;;;;-144.65;100.00;64500.88;4993279;28;20057;-75
2022/08/20 07:13:15;;;;;;;1999.90;999.90;;;;;;;-144.65;100.00;64500.88;4993289;28;20045;-75
2022/08/20 07:15:42;;;;;;;1999.90;999.90;;;;;;;-144.65;100.00;64500.88;4993248;28;20407;-75
2022/08/20 07:18:09;;;;;;;1999.90;999.90;;;;;;;-144.65;100.00;64500.88;4991527;28;20042;-75
2022/08/20 07:20:37;;;;;;;1999.90;999.90;;;;;;;-144.65;100.00;64500.88;4992937;28;20039;-76
2022/08/20 07:23:02;;;;;;;1999.90;999.90;;;;;;;-144.65;100.00;64500.88;4992432;28;20038;-74
2022/08/20 07:25:30;;;;;;;1999.90;999.90;;;;;;;-144.65;100.00;64500.88;4991530;28;20029;-74
2022/08/20 07:28:06;;;;;;;1999.90;999.90;;;;;;;-144.65;100.00;64500.88;4991922;28;20072;-75
2022/08/20 07:33:15;;;;;;;1999.90;999.90;;;;;;;-144.65;100.00;64500.88;4992559;28;20547;-74
2022/08/20 07:35:42;;;;;;;1999.90;999.90;;;;;;;-144.65;100.00;64500.88;4992881;28;20108;-77
2022/08/20 07:38:23;;;;;;;1999.90;999.90;;;;;;;-144.65;100.00;64500.88;4994490;28;20110;-75
2022/08/20 07:40:53;;;;;;;1999.90;999.90;;;;;;;-144.65;100.00;64500.88;4992567;28;20018;-77
2022/08/20 07:43:20;;;;;;;1999.90;999.90;;;;;;;-144.65;100.00;64500.88;4992552;28;20081;-75
2022/08/20 07:45:45;;;;;;;1999.90;999.90;;;;;;;-144.65;100.00;64500.88;4971568;28;20133;-77
2022/08/20 07:48:12;;;;;;;1999.90;999.90;;;;;;;-144.65;100.00;64500.88;4992656;28;20088;-76
2022/08/20 07:50:38;;;;;;;1999.90;999.90;;;;;;;-144.65;100.00;64500.88;4989816;28;20038;-77
2022/08/20 07:53:04;;;;;;;1999.90;999.90;;;;;;;-144.65;100.00;64500.88;4975142;28;20038;-78
2022/08/20 07:55:30;;;;;;;1999.90;999.90;;;;;;;-144.65;100.00;64500.88;4992578;28;20467;-74
2022/08/20 07:57:59;;;;;;;1999.90;999.90;;;;;;;-144.65;100.00;64500.88;4992426;28;20031;-74
2022/08/20 08:00:25;;;;;;;1999.90;999.90;;;;;;;-144.65;100.00;64500.88;4991637;28;20049;-74
2022/08/20 08:02:50;;;;;;;1999.90;999.90;;;;;;;-144.65;100.00;64500.88;4992541;28;20019;-75
2022/08/20 08:05:17;;;;;;;1999.90;999.90;;;;;;;-144.65;100.00;64500.88;4993330;28;20096;-76
2022/08/20 08:07:43;;;;;;;1999.90;999.90;;;;;;;-144.65;100.00;64500.88;4992584;28;20019;-76
2022/08/20 08:10:14;;;;;;;1999.90;999.90;;;;;;;-144.65;100.00;64500.88;4990118;28;20042;-76
2022/08/20 08:12:43;;;;;;;1999.90;999.90;;;;;;;-144.65;100.00;64500.88;4977102;28;20136;-78
2022/08/20 08:15:14;;;;;;;1999.90;999.90;;;;;;;-144.65;100.00;64500.88;4973682;28;20105;-77
2022/08/20 08:17:42;;;;;;;1999.90;999.90;;;;;;;-144.65;100.00;64500.88;4976569;28;20102;-75
2022/08/20 08:20:11;;;;;;;1999.90;999.90;;;;;;;-144.65;100.00;64500.88;4986861;28;20041;-77
2022/08/20 08:22:41;;;;;;;1999.90;999.90;;;;;;;-144.65;100.00;64500.88;4990350;28;20023;-78
2022/08/20 08:25:11;;;;;;;1999.90;999.90;;;;;;;-144.65;100.00;64500.88;4991074;28;20026;-76
2022/08/20 08:27:37;;;;;;;1999.90;999.90;;;;;;;-144.65;100.00;64500.88;4989751;28;20030;-80
2022/08/20 08:30:03;;;;;;;1999.90;999.90;;;;;;;-144.65;100.00;64500.88;4990743;28;20050;-71
2022/08/20 08:32:32;;;;;;;1999.90;999.90;;;;;;;-144.65;100.00;64500.88;4990585;28;20049;-76
2022/08/20 08:34:58;;;;;;;1999.90;999.90;;;;;;;-144.65;100.00;64500.88;4988964;28;20479;-74
2022/08/20 08:37:23;;;;;;;1999.90;999.90;;;;;;;-144.65;100.00;64500.88;4980835;28;20084;-78
2022/08/20 08:39:49;;;;;;;1999.90;999.90;;;;;;;-144.65;100.00;64500.88;4986835;28;20391;-75
2022/08/20 08:42:34;;;;;;;1999.90;999.90;;;;;;;-144.65;100.00;64500.88;4973249;28;20023;-75
2022/08/20 08:44:59;;;;;;;1999.90;999.90;;;;;;;-144.65;100.00;64500.88;4968877;28;20042;-75
2022/08/20 08:47:34;;;;;;;1999.90;999.90;;;;;;;-144.65;100.00;64500.88;4990533;28;20034;-78
2022/08/20 08:50:01;;;;;;;1999.90;999.90;;;;;;;-144.65;100.00;64500.88;4989631;28;20545;-78
2022/08/20 08:52:30;;;;;;;1999.90;999.90;;;;;;;-144.65;100.00;64500.88;4993792;28;20026;-78
2022/08/20 08:55:02;;;;;;;1999.90;999.90;;;;;;;-144.65;100.00;64500.88;4999121;28;20487;-78
2022/08/20 08:57:27;;;;;;;1999.90;999.90;;;;;;;-144.65;100.00;64500.88;5006048;28;20103;-79
2022/08/20 09:00:04;;;;;;;1999.90;999.90;;;;;;;-144.65;100.00;64500.88;5003322;28;20126;-79
2022/08/20 09:02:31;;;;;;;1999.90;999.90;;;;;;;-144.65;100.00;64500.88;4989631;28;20510;-82
2022/08/20 09:05:00;;;;;;;1999.90;999.90;;;;;;;-144.65;100.00;64500.88;4997134;28;20114;-77
2022/08/20 09:07:31;;;;;;;1999.90;999.90;;;;;;;-144.65;100.00;64500.88;4995389;28;20566;-77
2022/08/20 09:09:59;;;;;;;1999.90;999.90;;;;;;;-144.65;100.00;64500.88;4998573;28;20486;-78
2022/08/20 09:12:27;;;;;;;1999.90;999.90;;;;;;;-144.65;100.00;64500.88;5001902;28;20049;-83
2022/08/20 09:14:53;;;;;;;1999.90;999.90;;;;;;;-144.65;100.00;64500.88;5000670;28;20017;-79
2022/08/20 09:17:21;;;;;;;1999.90;999.90;;;;;;;-144.65;100.00;64500.88;4998164;28;20018;-79
2022/08/20 09:19:51;;;;;;;1999.90;999.90;;;;;;;-144.65;100.00;64500.88;5007467;28;20033;-87
2022/08/20 09:22:19;;;;;;;1999.90;999.90;;;;;;;-144.65;100.00;64500.88;4995009;28;20475;-86
2022/08/20 09:24:44;;;;;;;1999.90;999.90;;;;;;;-144.65;100.00;64500.88;5015422;28;20026;-86
2022/08/20 09:27:10;;;;;;;1999.90;999.90;;;;;;;-144.65;100.00;64500.88;4989240;28;20394;-77
2022/08/20 09:29:36;;;;;;;1999.90;999.90;;;;;;;-144.65;100.00;64500.88;5001516;28;20048;-77
2022/08/20 09:32:03;;;;;;;1999.90;999.90;;;;;;;-144.65;100.00;64500.88;4986136;28;20479;-78
2022/08/20 09:34:28;;;;;;;1999.90;999.90;;;;;;;-144.65;100.00;64500.88;5005855;28;20117;-79
2022/08/20 09:36:53;;;;;;;1999.90;999.90;;;;;;;-144.65;100.00;64500.88;5005494;28;20065;-80
2022/08/20 09:39:19;;;;;;;1999.90;999.90;;;;;;;-144.65;100.00;64500.88;4991922;28;20026;-78
2022/08/20 09:41:44;;;;;;;1999.90;999.90;;;;;;;-144.65;100.00;64500.88;4992130;28;20478;-75
2022/08/20 09:44:09;;;;;;;1999.90;999.90;;;;;;;-144.65;100.00;64500.88;4994185;28;20058;-77
2022/08/20 09:46:35;;;;;;;1999.90;999.90;;;;;;;-144.65;100.00;64500.88;4994069;28;20037;-79
2022/08/20 09:49:00;;;;;;;1999.90;999.90;;;;;;;-144.65;100.00;64500.88;4992471;28;20038;-79
2022/08/20 09:51:26;;;;;;;1999.90;999.90;;;;;;;-144.65;100.00;64500.88;4973271;28;20367;-76
2022/08/20 09:53:52;;;;;;;1999.90;999.90;;;;;;;-144.65;100.00;64500.88;4993419;28;20049;-74
2022/08/20 09:56:17;;;;;;;1999.90;999.90;;;;;;;-144.65;100.00;64500.88;4991667;28;20036;-75
2022/08/20 09:58:50;;;;;;;1999.90;999.90;;;;;;;-144.65;100.00;64500.88;4990607;28;20019;-73
2022/08/20 10:01:19;;;;;;;1999.90;999.90;;;;;;;-144.65;100.00;64500.88;4992185;28;20109;-70
2022/08/20 10:03:47;;;;;;;1999.90;999.90;;;;;;;-144.65;100.00;64500.88;4990505;28;20030;-72
2022/08/20 10:06:13;;;;;;;1999.90;999.90;;;;;;;-144.65;100.00;64500.88;4994352;28;20431;-78
2022/08/20 10:08:39;;;;;;;1999.90;999.90;;;;;;;-144.65;100.00;64500.88;4992750;28;20048;-76
2022/08/20 10:11:05;;;;;;;1999.90;999.90;;;;;;;-144.65;100.00;64500.88;5010685;28;20046;-82
2022/08/20 10:13:30;;;;;;;1999.90;999.90;;;;;;;-144.65;100.00;64500.88;5009774;28;20154;-84
2022/08/20 10:15:56;;;;;;;1999.90;999.90;;;;;;;-144.65;100.00;64500.88;4999596;28;20022;-82
2022/08/20 10:18:21;;;;;;;1999.90;999.90;;;;;;;-144.65;100.00;64500.88;4991902;28;20741;-84
2022/08/20 10:20:47;;;;;;;1999.90;999.90;;;;;;;-144.65;100.00;64500.88;5011303;28;20486;-86
2022/08/20 10:23:12;;;;;;;1999.90;999.90;;;;;;;-144.65;100.00;64500.88;5012524;28;20065;-81
2022/08/20 10:25:37;;;;;;;1999.90;999.90;;;;;;;-144.65;100.00;64500.88;5000495;28;20032;-83
2022/08/20 10:28:04;;;;;;;1999.90;999.90;;;;;;;-144.65;100.00;64500.88;5012441;28;20430;-84
2022/08/20 10:30:29;;;;;;;1999.90;999.90;;;;;;;-144.65;100.00;64500.88;5002131;28;20072;-79
2022/08/20 10:32:55;;;;;;;1999.90;999.90;;;;;;;-144.65;100.00;64500.88;5000623;28;20537;-71
2022/08/20 10:35:20;;;;;;;1999.90;999.90;;;;;;;-144.65;100.00;64500.88;5013046;28;20021;-72
2022/08/20 10:37:46;;;;;;;1999.90;999.90;;;;;;;-144.65;100.00;64500.88;5012334;28;20030;-73
2022/08/20 10:40:15;;;;;;;1999.90;999.90;;;;;;;-144.65;100.00;64500.88;5012817;28;20029;-72